This is the latest recevied weather packets stored in our database for station/object KB1RMA-13. If no packets are shown the sender has not sent any weather packets the latest 10 day(s).
| Time | Temp. | Humidity | Pressure | Rain* | Wind** | Luminosity | Snow |
|---|---|---|---|---|---|---|---|
| 1777921537 | 22.22° C | 31% | 1005.9 hPa | 0 mm | - | 733 W/m² | - |
| 1777921232 | 21.67° C | 30% | 1006 hPa | 0 mm | - | 757 W/m² | - |
| 1777920930 | 22.22° C | 31% | 1006 hPa | 0 mm | - | 751 W/m² | - |
| 1777920626 | 21.67° C | 30% | 1006 hPa | 0 mm | - | 771 W/m² | - |
| 1777920321 | 21.67° C | 30% | 1006.1 hPa | 0 mm | - | 782 W/m² | - |
| 1777920017 | 21.67° C | 32% | 1006.2 hPa | 0 mm | - | 787 W/m² | - |
| 1777919715 | 21.67° C | 30% | 1006.2 hPa | 0 mm | - | 802 W/m² | - |
| 1777919413 | 21.11° C | 30% | 1006.2 hPa | 0 mm | - | 812 W/m² | - |
| 1777919109 | 21.11° C | 30% | 1006.3 hPa | 0 mm | - | 820 W/m² | - |
| 1777918807 | 21.67° C | 31% | 1006.3 hPa | 0 mm | - | 825 W/m² | - |
| 1777918504 | 21.11° C | 30% | 1006.4 hPa | 0 mm | - | 839 W/m² | - |
| 1777918202 | 21.67° C | 32% | 1006.4 hPa | 0 mm | - | 841 W/m² | - |
| 1777917900 | 21.67° C | 31% | 1006.4 hPa | 0 mm | - | 848 W/m² | - |
| 1777917599 | 20.56° C | 32% | 1006.2 hPa | 0 mm | - | 857 W/m² | - |
| 1777917295 | 21.11° C | 31% | 1006.5 hPa | 0 mm | - | 859 W/m² | - |
| 1777916993 | 21.11° C | 30% | 1006.4 hPa | 0 mm | - | 866 W/m² | - |
| 1777916690 | 21.11° C | 31% | 1006.5 hPa | 0 mm | - | 867 W/m² | - |
| 1777916388 | 20.56° C | 32% | 1006.9 hPa | 0 mm | - | 879 W/m² | - |
| 1777916083 | 21.11° C | 33% | 1006.6 hPa | 0 mm | - | 884 W/m² | - |
| 1777915782 | 20.56° C | 32% | 1006.7 hPa | 0 mm | - | 889 W/m² | - |
| 1777915477 | 20° C | 32% | 1006.9 hPa | 0 mm | - | 890 W/m² | - |
| 1777915174 | 20.56° C | 32% | 1006.8 hPa | 0 mm | - | 898 W/m² | - |
| 1777914871 | 20.56° C | 32% | 1006.9 hPa | 0 mm | - | 896 W/m² | - |
| 1777914568 | 20.56° C | 31% | 1006.7 hPa | 0 mm | - | 899 W/m² | - |
| 1777914264 | 20° C | 34% | 1006.8 hPa | 0 mm | - | 888 W/m² | - |
* Rain latest hour (hover to see other rain measurements)
** Current wind speed in m/s (hover to see current wind gust speed)